sensor_id;sensor_type;location;lat;lon;timestamp;pressure;altitude;pressure_sealevel;temperature;humidity
65384;BME280;51986;52.788;41.368;2023-08-01T00:00:26;98820.91;;;20.66;43.34
65384;BME280;51986;52.788;41.368;2023-08-01T00:02:57;98823.88;;;20.68;43.41
65384;BME280;51986;52.788;41.368;2023-08-01T00:05:24;98783.81;;;20.59;43.49
65384;BME280;51986;52.788;41.368;2023-08-01T00:07:52;98814.47;;;20.58;43.88
65384;BME280;51986;52.788;41.368;2023-08-01T00:10:26;98819.75;;;20.52;44.62
65384;BME280;51986;52.788;41.368;2023-08-01T00:12:55;98798.81;;;20.51;44.70
65384;BME280;51986;52.788;41.368;2023-08-01T00:15:22;98805.31;;;20.44;44.32
65384;BME280;51986;52.788;41.368;2023-08-01T00:18:12;98821.91;;;20.48;44.50
65384;BME280;51986;52.788;41.368;2023-08-01T00:20:40;98816.34;;;20.52;44.92
65384;BME280;51986;52.788;41.368;2023-08-01T00:23:07;98803.28;;;20.39;44.75
65384;BME280;51986;52.788;41.368;2023-08-01T00:25:34;98800.16;;;20.41;44.83
65384;BME280;51986;52.788;41.368;2023-08-01T00:28:01;98813.63;;;20.46;44.88
65384;BME280;51986;52.788;41.368;2023-08-01T00:30:31;98833.91;;;20.53;44.58
65384;BME280;51986;52.788;41.368;2023-08-01T00:33:01;98791.13;;;20.38;44.87
65384;BME280;51986;52.788;41.368;2023-08-01T00:35:30;98819.81;;;20.58;44.27
65384;BME280;51986;52.788;41.368;2023-08-01T00:37:57;98845.16;;;20.57;44.95
65384;BME280;51986;52.788;41.368;2023-08-01T00:40:32;98806.44;;;20.58;44.78
65384;BME280;51986;52.788;41.368;2023-08-01T00:43:00;98805.25;;;20.59;44.28
65384;BME280;51986;52.788;41.368;2023-08-01T00:45:27;98812.25;;;20.57;44.24
65384;BME280;51986;52.788;41.368;2023-08-01T00:47:54;98811.41;;;20.65;44.32
65384;BME280;51986;52.788;41.368;2023-08-01T00:50:22;98808.66;;;20.60;44.54
65384;BME280;51986;52.788;41.368;2023-08-01T00:52:51;98816.97;;;20.62;44.29
65384;BME280;51986;52.788;41.368;2023-08-01T00:55:18;98824.28;;;20.61;44.60
65384;BME280;51986;52.788;41.368;2023-08-01T00:57:54;98821.13;;;20.63;44.71
65384;BME280;51986;52.788;41.368;2023-08-01T01:00:23;98806.16;;;20.56;45.36
65384;BME280;51986;52.788;41.368;2023-08-01T04:17:54;98901.69;;;22.15;47.71
65384;BME280;51986;52.788;41.368;2023-08-01T04:20:21;98915.88;;;22.21;47.43
65384;BME280;51986;52.788;41.368;2023-08-01T04:22:48;98924.72;;;22.27;47.82
65384;BME280;51986;52.788;41.368;2023-08-01T04:25:15;98904.16;;;22.24;48.13
65384;BME280;51986;52.788;41.368;2023-08-01T04:27:43;98928.16;;;22.34;47.91
65384;BME280;51986;52.788;41.368;2023-08-01T04:30:10;98923.81;;;22.42;47.72
65384;BME280;51986;52.788;41.368;2023-08-01T04:32:37;98933.84;;;22.47;47.75
65384;BME280;51986;52.788;41.368;2023-08-01T04:35:05;98955.81;;;22.45;48.41
65384;BME280;51986;52.788;41.368;2023-08-01T04:37:32;98928.47;;;22.47;48.91
65384;BME280;51986;52.788;41.368;2023-08-01T04:39:59;98942.66;;;22.53;48.51
65384;BME280;51986;52.788;41.368;2023-08-01T04:42:26;98938.78;;;22.60;49.90
65384;BME280;51986;52.788;41.368;2023-08-01T04:44:53;98964.47;;;22.66;50.30
65384;BME280;51986;52.788;41.368;2023-08-01T04:47:25;98952.06;;;22.74;49.42
65384;BME280;51986;52.788;41.368;2023-08-01T04:49:54;98955.75;;;22.82;49.65
65384;BME280;51986;52.788;41.368;2023-08-01T04:52:21;98929.31;;;22.75;50.06
65384;BME280;51986;52.788;41.368;2023-08-01T04:54:51;98944.47;;;22.78;50.11
65384;BME280;51986;52.788;41.368;2023-08-01T04:57:18;98938.63;;;22.80;49.35
65384;BME280;51986;52.788;41.368;2023-08-01T04:59:45;98931.13;;;22.95;48.67
65384;BME280;51986;52.788;41.368;2023-08-01T05:02:14;98963.91;;;22.99;48.46
65384;BME280;51986;52.788;41.368;2023-08-01T05:04:41;98937.47;;;22.92;48.25
65384;BME280;51986;52.788;41.368;2023-08-01T05:07:08;98936.78;;;23.14;47.47
65384;BME280;51986;52.788;41.368;2023-08-01T05:09:44;98942.91;;;23.26;47.75
65384;BME280;51986;52.788;41.368;2023-08-01T05:12:11;98939.28;;;23.35;47.06
65384;BME280;51986;52.788;41.368;2023-08-01T05:14:38;98944.16;;;23.30;47.40
65384;BME280;51986;52.788;41.368;2023-08-01T05:17:08;98953.97;;;23.39;47.14
65384;BME280;51986;52.788;41.368;2023-08-01T05:19:35;98917.28;;;23.42;46.70
65384;BME280;51986;52.788;41.368;2023-08-01T05:22:02;98928.50;;;23.40;46.99
65384;BME280;51986;52.788;41.368;2023-08-01T05:24:29;98960.63;;;23.61;46.46
65384;BME280;51986;52.788;41.368;2023-08-01T05:26:57;98941.03;;;23.66;46.60
65384;BME280;51986;52.788;41.368;2023-08-01T05:29:24;98922.69;;;23.58;45.68
65384;BME280;51986;52.788;41.368;2023-08-01T05:31:51;98964.03;;;23.72;46.05
65384;BME280;51986;52.788;41.368;2023-08-01T05:34:18;98936.63;;;23.68;45.43
65384;BME280;51986;52.788;41.368;2023-08-01T05:36:45;98949.84;;;23.72;45.59
65384;BME280;51986;52.788;41.368;2023-08-01T05:39:13;98970.66;;;23.82;46.11
65384;BME280;51986;52.788;41.368;2023-08-01T05:41:40;98962.56;;;23.77;46.56
65384;BME280;51986;52.788;41.368;2023-08-01T05:44:31;98973.13;;;23.75;47.01
65384;BME280;51986;52.788;41.368;2023-08-01T05:47:07;98980.94;;;23.78;47.22
65384;BME280;51986;52.788;41.368;2023-08-01T05:49:34;98989.50;;;23.94;47.04
65384;BME280;51986;52.788;41.368;2023-08-01T05:52:01;98991.22;;;23.86;47.20
65384;BME280;51986;52.788;41.368;2023-08-01T05:54:28;98977.50;;;23.83;47.31
65384;BME280;51986;52.788;41.368;2023-08-01T05:56:55;99000.03;;;23.80;47.09
65384;BME280;51986;52.788;41.368;2023-08-01T05:59:22;98956.41;;;23.54;47.06
65384;BME280;51986;52.788;41.368;2023-08-01T06:01:49;98979.22;;;23.70;47.98
65384;BME280;51986;52.788;41.368;2023-08-01T06:04:16;99006.88;;;23.59;49.02
65384;BME280;51986;52.788;41.368;2023-08-01T06:06:44;98996.78;;;23.48;49.94
65384;BME280;51986;52.788;41.368;2023-08-01T06:09:11;98997.53;;;23.54;50.86
65384;BME280;51986;52.788;41.368;2023-08-01T06:11:38;99021.75;;;23.38;51.52
65384;BME280;51986;52.788;41.368;2023-08-01T06:14:05;99016.56;;;23.28;52.64
65384;BME280;51986;52.788;41.368;2023-08-01T06:16:32;99017.31;;;23.29;51.92
65384;BME280;51986;52.788;41.368;2023-08-01T06:18:59;99012.63;;;23.18;52.24
65384;BME280;51986;52.788;41.368;2023-08-01T06:21:26;98998.34;;;22.90;53.09
65384;BME280;51986;52.788;41.368;2023-08-01T06:23:53;99014.38;;;22.78;53.83
65384;BME280;51986;52.788;41.368;2023-08-01T06:26:20;99025.13;;;22.78;54.24
65384;BME280;51986;52.788;41.368;2023-08-01T06:28:47;99006.09;;;22.82;55.08
65384;BME280;51986;52.788;41.368;2023-08-01T06:31:14;99015.25;;;22.53;55.11
65384;BME280;51986;52.788;41.368;2023-08-01T06:33:44;98992.28;;;22.52;55.40
65384;BME280;51986;52.788;41.368;2023-08-01T06:36:11;99025.97;;;22.53;55.58
65384;BME280;51986;52.788;41.368;2023-08-01T06:38:41;99005.44;;;22.50;55.91
65384;BME280;51986;52.788;41.368;2023-08-01T06:41:08;99007.63;;;22.46;56.47
65384;BME280;51986;52.788;41.368;2023-08-01T06:43:35;98996.66;;;22.55;56.79
65384;BME280;51986;52.788;41.368;2023-08-01T06:46:02;99049.19;;;22.50;57.33
65384;BME280;51986;52.788;41.368;2023-08-01T06:48:30;98995.84;;;22.38;57.56
65384;BME280;51986;52.788;41.368;2023-08-01T06:50:59;99034.03;;;22.47;57.31
65384;BME280;51986;52.788;41.368;2023-08-01T06:53:26;99080.63;;;22.39;57.55
65384;BME280;51986;52.788;41.368;2023-08-01T06:55:53;99031.56;;;22.49;57.38
65384;BME280;51986;52.788;41.368;2023-08-01T06:58:20;99032.53;;;22.41;57.81
65384;BME280;51986;52.788;41.368;2023-08-01T07:00:47;99022.16;;;22.28;57.74
65384;BME280;51986;52.788;41.368;2023-08-01T07:03:14;99004.09;;;22.28;58.40
65384;BME280;51986;52.788;41.368;2023-08-01T07:05:41;99009.66;;;22.19;58.50
65384;BME280;51986;52.788;41.368;2023-08-01T07:08:09;99008.56;;;22.11;59.29
65384;BME280;51986;52.788;41.368;2023-08-01T07:10:37;99017.69;;;22.19;59.89
65384;BME280;51986;52.788;41.368;2023-08-01T07:13:04;99012.13;;;21.97;59.59
65384;BME280;51986;52.788;41.368;2023-08-01T07:15:34;99019.31;;;21.79;59.39
65384;BME280;51986;52.788;41.368;2023-08-01T07:18:01;99020.97;;;21.77;61.12
65384;BME280;51986;52.788;41.368;2023-08-01T07:20:28;99015.09;;;21.73;61.29
65384;BME280;51986;52.788;41.368;2023-08-01T07:22:55;99024.25;;;21.87;61.41
65384;BME280;51986;52.788;41.368;2023-08-01T07:25:22;99004.09;;;21.71;60.14
65384;BME280;51986;52.788;41.368;2023-08-01T07:27:49;99023.47;;;21.80;60.94
65384;BME280;51986;52.788;41.368;2023-08-01T07:30:16;99020.63;;;21.64;61.36
65384;BME280;51986;52.788;41.368;2023-08-01T07:32:43;99016.63;;;21.53;61.63
65384;BME280;51986;52.788;41.368;2023-08-01T07:35:10;99026.41;;;21.57;61.87
65384;BME280;51986;52.788;41.368;2023-08-01T07:37:37;99004.84;;;21.71;61.57
65384;BME280;51986;52.788;41.368;2023-08-01T07:40:08;99020.03;;;21.80;60.49
65384;BME280;51986;52.788;41.368;2023-08-01T07:42:41;99066.16;;;21.78;60.29
65384;BME280;51986;52.788;41.368;2023-08-01T07:45:09;99001.69;;;22.04;59.95
65384;BME280;51986;52.788;41.368;2023-08-01T07:47:36;99004.34;;;22.30;59.33
65384;BME280;51986;52.788;41.368;2023-08-01T07:50:04;98979.91;;;22.28;57.52
65384;BME280;51986;52.788;41.368;2023-08-01T07:52:31;99071.88;;;22.49;58.28
65384;BME280;51986;52.788;41.368;2023-08-01T07:54:58;98991.03;;;22.47;57.77
65384;BME280;51986;52.788;41.368;2023-08-01T07:57:25;98990.47;;;22.38;57.16
65384;BME280;51986;52.788;41.368;2023-08-01T07:59:52;99019.38;;;22.54;58.30
65384;BME280;51986;52.788;41.368;2023-08-01T08:02:20;98994.09;;;22.35;57.38
65384;BME280;51986;52.788;41.368;2023-08-01T08:04:47;99001.59;;;22.62;56.51
65384;BME280;51986;52.788;41.368;2023-08-01T08:07:14;98992.59;;;22.65;56.00
65384;BME280;51986;52.788;41.368;2023-08-01T08:09:41;99002.56;;;22.59;56.41
65384;BME280;51986;52.788;41.368;2023-08-01T08:12:08;99002.88;;;22.72;55.89
65384;BME280;51986;52.788;41.368;2023-08-01T08:14:35;98996.28;;;22.73;55.36
65384;BME280;51986;52.788;41.368;2023-08-01T08:17:02;99018.06;;;22.81;55.81
65384;BME280;51986;52.788;41.368;2023-08-01T08:19:30;98989.22;;;22.76;55.34
65384;BME280;51986;52.788;41.368;2023-08-01T08:21:56;99029.31;;;22.79;54.63
65384;BME280;51986;52.788;41.368;2023-08-01T08:24:24;99004.13;;;22.82;54.83
65384;BME280;51986;52.788;41.368;2023-08-01T08:26:51;99001.06;;;22.95;54.60
65384;BME280;51986;52.788;41.368;2023-08-01T08:29:18;99041.69;;;23.03;54.32
65384;BME280;51986;52.788;41.368;2023-08-01T08:31:44;98990.22;;;22.84;55.51
65384;BME280;51986;52.788;41.368;2023-08-01T08:34:12;98996.34;;;22.85;55.79
65384;BME280;51986;52.788;41.368;2023-08-01T08:36:39;98985.00;;;22.69;56.35
65384;BME280;51986;52.788;41.368;2023-08-01T08:39:06;98966.31;;;22.12;58.75
65384;BME280;51986;52.788;41.368;2023-08-01T08:41:38;98977.53;;;22.36;57.67
65384;BME280;51986;52.788;41.368;2023-08-01T08:44:07;98980.47;;;22.06;57.82
65384;BME280;51986;52.788;41.368;2023-08-01T08:46:41;98978.56;;;22.13;58.53
65384;BME280;51986;52.788;41.368;2023-08-01T08:49:09;98967.72;;;21.70;59.70
65384;BME280;51986;52.788;41.368;2023-08-01T08:51:37;98967.22;;;21.66;59.64
65384;BME280;51986;52.788;41.368;2023-08-01T08:54:05;98954.19;;;21.85;59.50
65384;BME280;51986;52.788;41.368;2023-08-01T08:56:33;98945.66;;;21.86;59.00
65384;BME280;51986;52.788;41.368;2023-08-01T08:59:01;98962.63;;;22.03;59.02
65384;BME280;51986;52.788;41.368;2023-08-01T09:01:28;98976.47;;;22.22;59.50
65384;BME280;51986;52.788;41.368;2023-08-01T09:03:55;98946.09;;;22.59;59.18
65384;BME280;51986;52.788;41.368;2023-08-01T09:06:32;98960.06;;;23.23;56.78
65384;BME280;51986;52.788;41.368;2023-08-01T09:09:04;98948.56;;;23.50;55.94
65384;BME280;51986;52.788;41.368;2023-08-01T09:11:49;98989.25;;;23.69;55.82
65384;BME280;51986;52.788;41.368;2023-08-01T09:14:17;98989.22;;;23.52;55.01
65384;BME280;51986;52.788;41.368;2023-08-01T09:16:45;98951.03;;;23.43;55.14
65384;BME280;51986;52.788;41.368;2023-08-01T09:19:21;98970.13;;;23.50;55.84
65384;BME280;51986;52.788;41.368;2023-08-01T09:21:49;98953.03;;;23.59;56.25
65384;BME280;51986;52.788;41.368;2023-08-01T09:24:18;98942.03;;;23.57;55.63
65384;BME280;51986;52.788;41.368;2023-08-01T09:26:47;98942.25;;;23.59;53.78
65384;BME280;51986;52.788;41.368;2023-08-01T09:29:19;98943.25;;;23.67;53.01
65384;BME280;51986;52.788;41.368;2023-08-01T09:31:47;98944.19;;;24.09;52.76
65384;BME280;51986;52.788;41.368;2023-08-01T09:34:22;98946.84;;;24.31;51.31
65384;BME280;51986;52.788;41.368;2023-08-01T09:36:49;98949.06;;;24.22;51.22
65384;BME280;51986;52.788;41.368;2023-08-01T09:39:18;98959.59;;;24.42;49.94
65384;BME280;51986;52.788;41.368;2023-08-01T09:41:52;98954.38;;;24.61;49.47
65384;BME280;51986;52.788;41.368;2023-08-01T09:44:21;98920.94;;;24.81;49.26
65384;BME280;51986;52.788;41.368;2023-08-01T09:46:56;98929.78;;;24.81;48.81
65384;BME280;51986;52.788;41.368;2023-08-01T09:49:23;98921.69;;;24.81;48.98
65384;BME280;51986;52.788;41.368;2023-08-01T09:51:50;98917.44;;;24.92;48.25
65384;BME280;51986;52.788;41.368;2023-08-01T09:54:18;98928.50;;;24.88;48.41
65384;BME280;51986;52.788;41.368;2023-08-01T09:56:51;98912.22;;;25.10;48.30
65384;BME280;51986;52.788;41.368;2023-08-01T09:59:23;98907.63;;;25.00;48.34
65384;BME280;51986;52.788;41.368;2023-08-01T10:01:52;98922.03;;;25.08;47.94
65384;BME280;51986;52.788;41.368;2023-08-01T10:04:24;98915.22;;;25.01;47.85
65384;BME280;51986;52.788;41.368;2023-08-01T10:06:54;98900.75;;;24.99;48.05
65384;BME280;51986;52.788;41.368;2023-08-01T10:09:24;98925.28;;;25.01;48.46
65384;BME280;51986;52.788;41.368;2023-08-01T10:11:51;98892.75;;;24.82;48.02
65384;BME280;51986;52.788;41.368;2023-08-01T10:14:22;98917.69;;;24.94;47.48
65384;BME280;51986;52.788;41.368;2023-08-01T10:16:51;98898.09;;;24.88;47.13
65384;BME280;51986;52.788;41.368;2023-08-01T10:19:19;98894.75;;;24.76;47.88
65384;BME280;51986;52.788;41.368;2023-08-01T10:21:47;98967.53;;;24.81;47.58
65384;BME280;51986;52.788;41.368;2023-08-01T10:24:16;98932.56;;;24.59;47.04
65384;BME280;51986;52.788;41.368;2023-08-01T10:26:45;98906.00;;;24.74;46.83
65384;BME280;51986;52.788;41.368;2023-08-01T10:29:12;98890.50;;;24.86;46.41
65384;BME280;51986;52.788;41.368;2023-08-01T10:31:50;98894.16;;;24.94;46.21
65384;BME280;51986;52.788;41.368;2023-08-01T10:34:18;98877.50;;;24.84;46.98
65384;BME280;51986;52.788;41.368;2023-08-01T10:36:54;98887.78;;;24.92;46.17
65384;BME280;51986;52.788;41.368;2023-08-01T10:39:22;98879.88;;;24.99;46.65
65384;BME280;51986;52.788;41.368;2023-08-01T10:41:59;98871.59;;;25.27;46.21
65384;BME280;51986;52.788;41.368;2023-08-01T10:44:28;98874.66;;;25.48;44.98
65384;BME280;51986;52.788;41.368;2023-08-01T10:49:42;98853.03;;;25.48;44.09
65384;BME280;51986;52.788;41.368;2023-08-01T10:54:47;98857.03;;;25.72;43.86
65384;BME280;51986;52.788;41.368;2023-08-01T10:57:17;98851.78;;;25.79;43.51
65384;BME280;51986;52.788;41.368;2023-08-01T10:59:45;98845.41;;;26.01;42.08
65384;BME280;51986;52.788;41.368;2023-08-01T11:02:20;98847.69;;;26.41;41.88
65384;BME280;51986;52.788;41.368;2023-08-01T11:04:57;98845.53;;;26.33;41.57
65384;BME280;51986;52.788;41.368;2023-08-01T11:07:25;98850.63;;;26.18;42.56
65384;BME280;51986;52.788;41.368;2023-08-01T11:10:13;98854.78;;;26.62;42.47
65384;BME280;51986;52.788;41.368;2023-08-01T11:12:42;98837.94;;;26.70;42.94
65384;BME280;51986;52.788;41.368;2023-08-01T11:15:13;98834.44;;;26.75;42.82
65384;BME280;51986;52.788;41.368;2023-08-01T11:17:43;98850.75;;;26.69;43.97
65384;BME280;51986;52.788;41.368;2023-08-01T11:20:13;98843.66;;;26.66;43.30
65384;BME280;51986;52.788;41.368;2023-08-01T11:25:41;98845.53;;;26.90;43.94
65384;BME280;51986;52.788;41.368;2023-08-01T11:28:15;98841.47;;;27.16;43.66
65384;BME280;51986;52.788;41.368;2023-08-01T11:30:43;98826.84;;;26.73;43.78
65384;BME280;51986;52.788;41.368;2023-08-01T11:33:19;98849.78;;;26.48;44.48
65384;BME280;51986;52.788;41.368;2023-08-01T11:35:50;98857.03;;;26.58;44.38
65384;BME280;51986;52.788;41.368;2023-08-01T11:38:18;98901.34;;;26.74;44.02
65384;BME280;51986;52.788;41.368;2023-08-01T11:40:46;98832.75;;;26.72;44.51
65384;BME280;51986;52.788;41.368;2023-08-01T11:43:13;98836.88;;;27.10;44.38
65384;BME280;51986;52.788;41.368;2023-08-01T11:45:56;98823.97;;;27.17;44.51
65384;BME280;51986;52.788;41.368;2023-08-01T11:48:24;98835.75;;;26.87;44.05
65384;BME280;51986;52.788;41.368;2023-08-01T11:51:01;98842.59;;;27.07;44.84
65384;BME280;51986;52.788;41.368;2023-08-01T11:53:29;98827.50;;;27.11;44.21
65384;BME280;51986;52.788;41.368;2023-08-01T11:55:56;98866.97;;;27.07;43.99
65384;BME280;51986;52.788;41.368;2023-08-01T11:58:35;98838.03;;;26.64;43.71
65384;BME280;51986;52.788;41.368;2023-08-01T12:01:10;98796.19;;;26.65;43.48
65384;BME280;51986;52.788;41.368;2023-08-01T12:03:47;98815.66;;;26.45;44.10
65384;BME280;51986;52.788;41.368;2023-08-01T12:06:16;98826.25;;;26.43;44.73
65384;BME280;51986;52.788;41.368;2023-08-01T12:08:45;98814.78;;;26.36;45.38
65384;BME280;51986;52.788;41.368;2023-08-01T12:11:23;98814.25;;;26.38;45.70
65384;BME280;51986;52.788;41.368;2023-08-01T12:14:12;98809.31;;;26.42;45.07
65384;BME280;51986;52.788;41.368;2023-08-01T12:16:42;98821.28;;;26.47;44.76
65384;BME280;51986;52.788;41.368;2023-08-01T12:19:10;98823.03;;;26.63;44.27
65384;BME280;51986;52.788;41.368;2023-08-01T12:21:37;98818.84;;;26.62;44.61
65384;BME280;51986;52.788;41.368;2023-08-01T12:24:04;98825.22;;;26.83;44.18
65384;BME280;51986;52.788;41.368;2023-08-01T12:26:31;98803.88;;;27.12;42.79
65384;BME280;51986;52.788;41.368;2023-08-01T12:28:58;98787.41;;;27.10;42.31
65384;BME280;51986;52.788;41.368;2023-08-01T12:31:25;98804.19;;;27.54;40.22
65384;BME280;51986;52.788;41.368;2023-08-01T12:33:52;98775.00;;;27.60;40.31
65384;BME280;51986;52.788;41.368;2023-08-01T12:36:19;98790.84;;;27.69;40.20
65384;BME280;51986;52.788;41.368;2023-08-01T12:38:46;98778.19;;;27.98;39.68
65384;BME280;51986;52.788;41.368;2023-08-01T12:41:14;98795.69;;;28.10;39.86
65384;BME280;51986;52.788;41.368;2023-08-01T12:43:41;98792.97;;;28.24;39.85
65384;BME280;51986;52.788;41.368;2023-08-01T12:46:08;98776.13;;;28.38;39.77
65384;BME280;51986;52.788;41.368;2023-08-01T12:48:35;98872.72;;;28.42;38.67
65384;BME280;51986;52.788;41.368;2023-08-01T12:51:02;98760.97;;;28.43;39.24
65384;BME280;51986;52.788;41.368;2023-08-01T12:53:29;98790.94;;;28.37;38.84
65384;BME280;51986;52.788;41.368;2023-08-01T12:56:03;98761.53;;;28.62;39.29
65384;BME280;51986;52.788;41.368;2023-08-01T12:58:30;98769.25;;;28.37;38.57
65384;BME280;51986;52.788;41.368;2023-08-01T13:00:57;98792.81;;;28.43;38.54
65384;BME280;51986;52.788;41.368;2023-08-01T13:03:24;98762.38;;;28.36;38.50
65384;BME280;51986;52.788;41.368;2023-08-01T13:05:51;98781.97;;;28.43;39.14
65384;BME280;51986;52.788;41.368;2023-08-01T13:08:19;98791.50;;;28.57;38.52
65384;BME280;51986;52.788;41.368;2023-08-01T13:10:46;98751.44;;;28.63;38.17
65384;BME280;51986;52.788;41.368;2023-08-01T13:13:13;98767.06;;;28.36;39.14
65384;BME280;51986;52.788;41.368;2023-08-01T13:15:40;98761.16;;;28.24;39.94
65384;BME280;51986;52.788;41.368;2023-08-01T13:18:07;98738.25;;;27.99;40.10
65384;BME280;51986;52.788;41.368;2023-08-01T13:20:34;98747.97;;;27.81;40.61
65384;BME280;51986;52.788;41.368;2023-08-01T13:23:03;98735.41;;;27.57;41.23
65384;BME280;51986;52.788;41.368;2023-08-01T13:25:30;98767.66;;;27.42;41.04
65384;BME280;51986;52.788;41.368;2023-08-01T13:27:57;98787.59;;;27.44;41.17
65384;BME280;51986;52.788;41.368;2023-08-01T13:30:24;98790.38;;;27.25;41.30
65384;BME280;51986;52.788;41.368;2023-08-01T13:32:51;98802.63;;;27.13;41.87
65384;BME280;51986;52.788;41.368;2023-08-01T13:35:18;98769.88;;;27.30;41.59
65384;BME280;51986;52.788;41.368;2023-08-01T13:37:45;98751.06;;;27.05;41.65
65384;BME280;51986;52.788;41.368;2023-08-01T13:40:12;98758.59;;;27.12;41.98
65384;BME280;51986;52.788;41.368;2023-08-01T13:42:40;98778.34;;;27.07;42.38
65384;BME280;51986;52.788;41.368;2023-08-01T13:45:08;98776.84;;;27.25;42.04
65384;BME280;51986;52.788;41.368;2023-08-01T13:47:35;98781.81;;;27.21;42.17
65384;BME280;51986;52.788;41.368;2023-08-01T13:50:02;98762.31;;;26.96;42.71
65384;BME280;51986;52.788;41.368;2023-08-01T13:52:30;98754.19;;;27.09;41.74
65384;BME280;51986;52.788;41.368;2023-08-01T13:54:57;98765.97;;;27.12;42.63
65384;BME280;51986;52.788;41.368;2023-08-01T13:57:25;98714.34;;;27.23;42.23
65384;BME280;51986;52.788;41.368;2023-08-01T13:59:52;98760.97;;;27.29;42.13
65384;BME280;51986;52.788;41.368;2023-08-01T14:02:41;98772.66;;;27.37;41.93
65384;BME280;51986;52.788;41.368;2023-08-01T14:05:09;98777.69;;;27.47;42.56
65384;BME280;51986;52.788;41.368;2023-08-01T14:07:36;98761.03;;;27.56;41.93
65384;BME280;51986;52.788;41.368;2023-08-01T14:10:07;98757.06;;;27.57;41.62
65384;BME280;51986;52.788;41.368;2023-08-01T14:12:34;98755.63;;;27.69;41.46
65384;BME280;51986;52.788;41.368;2023-08-01T14:15:01;98761.13;;;27.77;42.32
65384;BME280;51986;52.788;41.368;2023-08-01T14:17:29;98762.72;;;27.59;42.23
65384;BME280;51986;52.788;41.368;2023-08-01T14:19:56;98755.38;;;27.67;41.53
65384;BME280;51986;52.788;41.368;2023-08-01T14:22:23;98742.47;;;27.73;41.31
65384;BME280;51986;52.788;41.368;2023-08-01T14:24:51;98741.63;;;27.78;41.32
65384;BME280;51986;52.788;41.368;2023-08-01T14:27:20;98762.59;;;27.78;42.53
65384;BME280;51986;52.788;41.368;2023-08-01T14:29:47;98745.56;;;27.90;42.62
65384;BME280;51986;52.788;41.368;2023-08-01T14:32:22;98726.53;;;27.83;42.95
65384;BME280;51986;52.788;41.368;2023-08-01T14:34:49;98755.69;;;27.77;43.38
65384;BME280;51986;52.788;41.368;2023-08-01T14:37:16;98735.31;;;27.49;43.10
65384;BME280;51986;52.788;41.368;2023-08-01T14:39:43;98765.16;;;27.44;43.85
65384;BME280;51986;52.788;41.368;2023-08-01T14:42:16;98760.16;;;27.21;44.82
65384;BME280;51986;52.788;41.368;2023-08-01T14:44:43;98746.75;;;27.55;44.40
65384;BME280;51986;52.788;41.368;2023-08-01T14:47:10;98763.13;;;27.63;44.91
65384;BME280;51986;52.788;41.368;2023-08-01T14:49:37;98740.72;;;27.49;44.94
65384;BME280;51986;52.788;41.368;2023-08-01T14:52:04;98737.69;;;27.53;44.59
65384;BME280;51986;52.788;41.368;2023-08-01T14:54:31;98718.72;;;27.39;44.91
65384;BME280;51986;52.788;41.368;2023-08-01T14:57:07;98724.16;;;27.53;44.58
65384;BME280;51986;52.788;41.368;2023-08-01T14:59:35;98721.63;;;27.42;44.73
65384;BME280;51986;52.788;41.368;2023-08-01T15:02:03;98747.28;;;27.54;44.75
65384;BME280;51986;52.788;41.368;2023-08-01T15:04:30;98716.84;;;27.48;44.93
65384;BME280;51986;52.788;41.368;2023-08-01T15:06:57;98738.00;;;27.62;45.13
65384;BME280;51986;52.788;41.368;2023-08-01T15:09:24;98721.44;;;27.39;45.33
65384;BME280;51986;52.788;41.368;2023-08-01T15:11:51;98738.75;;;27.50;45.34
65384;BME280;51986;52.788;41.368;2023-08-01T15:14:18;98761.66;;;27.49;44.96
65384;BME280;51986;52.788;41.368;2023-08-01T15:16:45;98735.81;;;27.48;44.37
65384;BME280;51986;52.788;41.368;2023-08-01T15:19:12;98725.78;;;27.29;45.09
65384;BME280;51986;52.788;41.368;2023-08-01T15:21:39;98754.84;;;27.29;45.15
65384;BME280;51986;52.788;41.368;2023-08-01T15:24:07;98725.38;;;27.12;45.92
65384;BME280;51986;52.788;41.368;2023-08-01T15:26:34;98726.81;;;27.00;46.76
65384;BME280;51986;52.788;41.368;2023-08-01T15:29:01;98759.94;;;27.06;46.79
65384;BME280;51986;52.788;41.368;2023-08-01T15:31:28;98758.16;;;27.08;47.01
65384;BME280;51986;52.788;41.368;2023-08-01T15:33:55;98742.63;;;26.96;47.26
65384;BME280;51986;52.788;41.368;2023-08-01T15:36:27;98751.19;;;26.68;46.89
65384;BME280;51986;52.788;41.368;2023-08-01T15:38:56;98713.69;;;26.58;47.49
65384;BME280;51986;52.788;41.368;2023-08-01T15:41:23;98776.28;;;26.49;48.38
65384;BME280;51986;52.788;41.368;2023-08-01T15:43:50;98766.41;;;26.33;48.74
65384;BME280;51986;52.788;41.368;2023-08-01T15:46:17;98743.84;;;26.30;48.90
65384;BME280;51986;52.788;41.368;2023-08-01T15:48:45;98838.81;;;26.21;49.18
65384;BME280;51986;52.788;41.368;2023-08-01T15:51:12;98757.84;;;26.10;49.80
65384;BME280;51986;52.788;41.368;2023-08-01T15:53:41;98752.13;;;25.95;49.82
65384;BME280;51986;52.788;41.368;2023-08-01T15:56:08;98751.03;;;25.84;50.02
65384;BME280;51986;52.788;41.368;2023-08-01T15:58:36;98755.03;;;25.78;51.38
65384;BME280;51986;52.788;41.368;2023-08-01T16:01:04;98773.44;;;25.79;51.71
65384;BME280;51986;52.788;41.368;2023-08-01T16:03:31;98769.81;;;25.77;52.41
65384;BME280;51986;52.788;41.368;2023-08-01T16:05:58;98768.09;;;25.74;52.57
65384;BME280;51986;52.788;41.368;2023-08-01T16:08:25;98767.13;;;25.71;53.00
65384;BME280;51986;52.788;41.368;2023-08-01T16:10:55;98745.31;;;25.69;53.39
65384;BME280;51986;52.788;41.368;2023-08-01T16:13:22;98761.31;;;25.67;53.95
65384;BME280;51986;52.788;41.368;2023-08-01T16:15:49;98748.81;;;25.40;54.77
65384;BME280;51986;52.788;41.368;2023-08-01T16:18:17;98762.97;;;25.46;54.80
65384;BME280;51986;52.788;41.368;2023-08-01T16:20:46;98763.63;;;25.52;54.52